Time;durP1;ratioP1;P1;durP2;ratioP2;P2;SDS_P1;SDS_P2;PMS_P1;PMS_P2;Temp;Humidity;BMP_temperature;BMP_pressure;BME280_temperature;BME280_humidity;BME280_pressure;Samples;Min_cycle;Max_cycle;Signal;HPM_P1;HPM_P2
2023/03/27 00:02:05;;;;;;;0.22;0.20;;;;;;;22.13;40.30;101379.84;4955230;28;97059;-80
2023/03/27 00:04:31;;;;;;;0.30;0.20;;;;;;;22.13;40.92;101368.88;4959130;28;97145;-81
2023/03/27 00:06:58;;;;;;;0.55;0.20;;;;;;;22.13;40.74;101385.31;4971209;28;97942;-80
2023/03/27 00:09:25;;;;;;;0.30;0.20;;;;;;;22.13;40.47;101376.25;4980046;28;96733;-80
2023/03/27 00:11:55;;;;;;;0.20;0.10;;;;;;;22.12;40.67;101378.13;4975627;28;96727;-81
2023/03/27 00:14:22;;;;;;;0.10;0.03;;;;;;;22.12;40.73;101380.84;4971627;28;97068;-80
2023/03/27 00:16:49;;;;;;;0.30;0.10;;;;;;;22.12;40.60;101383.59;4956817;28;97017;-80
2023/03/27 00:19:17;;;;;;;0.30;0.20;;;;;;;22.13;40.59;101390.78;4972705;28;96794;-80
2023/03/27 00:21:44;;;;;;;0.40;0.20;;;;;;;22.13;40.47;101396.25;4984058;28;96700;-80
2023/03/27 00:24:11;;;;;;;0.30;0.20;;;;;;;22.14;40.76;101403.44;4973170;28;96613;-79
2023/03/27 00:26:39;;;;;;;0.10;0.10;;;;;;;22.13;40.50;101400.88;4958078;28;96757;-80
2023/03/27 00:29:06;;;;;;;0.17;0.10;;;;;;;22.14;40.77;101405.31;4974319;28;96768;-80
2023/03/27 00:31:34;;;;;;;0.20;0.10;;;;;;;22.13;40.63;101409.06;4957312;28;96773;-80
2023/03/27 00:34:02;;;;;;;0.20;0.10;;;;;;;22.12;40.27;101413.69;4968913;28;97839;-80
2023/03/27 00:36:30;;;;;;;0.20;0.10;;;;;;;22.11;40.47;101414.72;4971642;28;97434;-80
2023/03/27 00:38:56;;;;;;;0.85;0.20;;;;;;;22.13;40.39;101422.75;4975128;28;96769;-80
2023/03/27 00:41:23;;;;;;;0.40;0.10;;;;;;;22.12;40.42;101419.16;4973693;28;96862;-80
2023/03/27 00:43:53;;;;;;;0.20;0.13;;;;;;;22.13;40.60;101430.94;4954190;28;98386;-80
2023/03/27 00:46:41;;;;;;;0.28;0.20;;;;;;;22.13;40.68;101431.81;4973448;28;97471;-80
2023/03/27 00:49:10;;;;;;;0.30;0.10;;;;;;;22.11;40.47;101433.88;4987845;28;97497;-80
2023/03/27 00:51:40;;;;;;;0.15;0.13;;;;;;;22.11;40.71;101428.38;4958861;28;96950;-80
2023/03/27 00:54:08;;;;;;;0.65;0.20;;;;;;;22.11;40.62;101439.34;4973343;28;96754;-80
2023/03/27 00:56:37;;;;;;;0.30;0.20;;;;;;;22.11;40.42;101428.38;4971740;28;97312;-80
2023/03/27 00:59:11;;;;;;;0.03;0.00;;;;;;;22.12;40.60;101438.31;4958186;28;96750;-80
2023/03/27 01:01:39;;;;;;;0.22;0.13;;;;;;;22.11;40.46;101439.34;4955023;28;96920;-80
2023/03/27 01:04:07;;;;;;;0.10;0.10;;;;;;;22.11;40.35;101436.59;4967874;28;98575;-79
2023/03/27 01:06:35;;;;;;;0.63;0.20;;;;;;;22.12;40.58;101437.44;4958804;28;96698;-80
2023/03/27 01:09:03;;;;;;;0.20;0.10;;;;;;;22.10;40.42;101437.63;4983823;28;96783;-80
2023/03/27 01:11:48;;;;;;;0.10;0.10;;;;;;;22.11;40.71;101441.22;4957605;28;96560;-80
2023/03/27 01:14:33;;;;;;;0.20;0.20;;;;;;;22.09;40.63;101452.31;4959500;28;97755;-80
2023/03/27 01:17:17;;;;;;;0.20;0.15;;;;;;;22.10;40.69;101456.78;4951652;28;98499;-79
2023/03/27 01:20:10;;;;;;;0.20;0.10;;;;;;;22.08;40.70;101457.97;4973384;28;96695;-80
2023/03/27 01:23:01;;;;;;;0.20;0.20;;;;;;;22.09;40.81;101462.41;4969341;28;97248;-79
2023/03/27 01:25:50;;;;;;;0.20;0.20;;;;;;;22.08;40.30;101460.69;4970906;28;96827;-80
2023/03/27 01:28:29;;;;;;;0.30;0.20;;;;;;;22.06;40.56;101460.88;4984103;28;97661;-79
2023/03/27 01:31:03;;;;;;;0.30;0.20;;;;;;;22.07;40.32;101468.06;4979976;28;97692;-80
2023/03/27 01:33:47;;;;;;;0.10;0.10;;;;;;;22.07;40.74;101475.41;4973648;28;96991;-79
2023/03/27 01:36:28;;;;;;;0.73;0.30;;;;;;;22.06;40.70;101480.03;4954144;28;98309;-79
2023/03/27 01:39:37;;;;;;;0.30;0.20;;;;;;;22.06;40.49;101485.50;4970678;28;97534;-80
2023/03/27 01:42:24;;;;;;;0.75;0.20;;;;;;;22.05;40.49;101499.34;4966070;28;97077;-80
2023/03/27 01:45:09;;;;;;;0.20;0.10;;;;;;;22.05;40.43;101499.34;4956475;28;96805;-80
2023/03/27 01:47:41;;;;;;;0.20;0.10;;;;;;;22.04;40.53;101489.41;4973184;28;99343;-77
2023/03/27 01:50:08;;;;;;;0.10;0.10;;;;;;;22.04;40.82;101501.22;4952902;28;98412;-80
2023/03/27 01:52:40;;;;;;;0.17;0.10;;;;;;;22.05;40.69;101502.06;4973328;28;97081;-79
2023/03/27 01:55:17;;;;;;;0.40;0.20;;;;;;;22.05;40.42;101500.19;4973587;28;96847;-80
2023/03/27 01:57:51;;;;;;;0.25;0.10;;;;;;;22.06;40.43;101490.97;4972928;28;96857;-80
2023/03/27 02:00:21;;;;;;;0.38;0.17;;;;;;;22.06;40.80;101501.91;4957410;28;98495;-80
2023/03/27 02:02:56;;;;;;;0.20;0.17;;;;;;;22.07;40.51;101500.03;4972627;28;97280;-80
2023/03/27 02:05:32;;;;;;;0.32;0.10;;;;;;;22.07;40.32;101502.75;4968103;28;97585;-80
2023/03/27 02:08:06;;;;;;;0.30;0.20;;;;;;;22.06;40.46;101504.63;4971630;28;98849;-80
2023/03/27 02:10:40;;;;;;;0.28;0.20;;;;;;;22.05;40.64;101511.13;4972598;28;97396;-80
2023/03/27 02:13:17;;;;;;;0.70;0.20;;;;;;;22.06;40.56;101517.47;4972899;28;96715;-79
2023/03/27 02:15:48;;;;;;;0.20;0.10;;;;;;;22.06;40.38;101523.78;4979872;28;96698;-80
2023/03/27 02:18:23;;;;;;;0.25;0.10;;;;;;;22.07;40.57;101521.91;4957751;28;97717;-80
2023/03/27 02:20:51;;;;;;;0.30;0.13;;;;;;;22.06;40.55;101522.94;4954119;28;96947;-80
2023/03/27 02:23:17;;;;;;;0.22;0.10;;;;;;;22.06;40.65;101528.41;4955672;28;96695;-80
2023/03/27 02:25:45;;;;;;;0.30;0.20;;;;;;;22.05;40.67;101535.75;4954099;28;96915;-80
2023/03/27 02:28:17;;;;;;;0.10;0.10;;;;;;;22.06;40.51;101539.34;4973745;28;99009;-80
2023/03/27 02:31:00;;;;;;;0.20;0.10;;;;;;;22.06;40.32;101550.28;4953806;28;97854;-80
2023/03/27 02:33:55;;;;;;;0.20;0.20;;;;;;;22.05;40.39;101554.91;4975303;28;96773;-80
2023/03/27 02:37:03;;;;;;;0.43;0.20;;;;;;;22.05;40.56;101564.97;4959391;28;97045;-79
2023/03/27 02:40:05;;;;;;;;;;;;;;;21.98;40.69;101558.44;4973754;28;96956;-80
2023/03/27 02:43:05;;;;;;;0.40;0.20;;;;;;;21.99;40.59;101550.06;4957329;28;97449;-80
2023/03/27 02:45:40;;;;;;;0.20;0.10;;;;;;;22.00;40.35;101553.66;4984386;28;96961;-79
2023/03/27 02:48:34;;;;;;;0.30;0.10;;;;;;;22.00;40.48;101559.97;4981551;28;96698;-78
2023/03/27 02:51:07;;;;;;;0.35;0.10;;;;;;;22.00;40.61;101559.97;4970834;28;96714;-79
2023/03/27 02:53:40;;;;;;;0.20;0.20;;;;;;;22.01;40.63;101572.63;4957522;28;98448;-78
2023/03/27 02:56:10;;;;;;;0.43;0.20;;;;;;;22.01;40.50;101578.09;4970783;28;96939;-79
2023/03/27 02:58:48;;;;;;;0.30;0.20;;;;;;;22.02;40.42;101577.09;4983306;28;97227;-78
2023/03/27 03:01:37;;;;;;;0.10;0.10;;;;;;;22.01;40.60;101580.84;4968218;28;97969;-78
2023/03/27 03:04:40;;;;;;;0.22;0.20;;;;;;;22.01;40.66;101580.84;4952740;28;99342;-78
2023/03/27 03:07:08;;;;;;;0.10;0.10;;;;;;;22.01;40.51;101586.31;4964923;28;97344;-78
2023/03/27 03:09:36;;;;;;;0.20;0.20;;;;;;;22.01;40.54;101585.44;4958783;28;96779;-78
2023/03/27 03:12:07;;;;;;;0.10;0.10;;;;;;;22.02;40.64;101584.44;4972249;28;97695;-78
2023/03/27 03:14:42;;;;;;;0.20;0.10;;;;;;;22.01;40.30;101586.31;4975077;28;97797;-78
2023/03/27 03:17:11;;;;;;;0.20;0.15;;;;;;;22.01;40.54;101594.50;4970589;28;96840;-78
2023/03/27 03:19:37;;;;;;;0.20;0.10;;;;;;;22.02;40.48;101598.09;4973455;28;97093;-78
2023/03/27 03:22:06;;;;;;;0.13;0.10;;;;;;;22.02;40.60;101596.22;4962726;28;97759;-78
2023/03/27 03:24:34;;;;;;;0.15;0.10;;;;;;;22.02;40.64;101600.84;4990768;28;96642;-78
2023/03/27 03:27:02;;;;;;;0.30;0.20;;;;;;;22.03;40.57;101605.31;4964422;28;96597;-78
2023/03/27 03:29:35;;;;;;;0.10;0.10;;;;;;;22.03;40.74;101616.25;4990611;28;96478;-78
2023/03/27 03:32:11;;;;;;;0.17;0.17;;;;;;;22.02;40.54;101609.91;4979907;28;96678;-78
2023/03/27 03:34:40;;;;;;;0.38;0.20;;;;;;;22.02;40.52;101620.00;4986396;28;96740;-78
2023/03/27 03:37:09;;;;;;;0.40;0.20;;;;;;;22.02;40.39;101626.31;4970561;28;96774;-78
2023/03/27 03:39:36;;;;;;;0.55;0.20;;;;;;;22.03;40.48;101624.47;4986009;28;96679;-78
2023/03/27 03:42:03;;;;;;;0.98;0.20;;;;;;;22.02;40.25;101631.78;4986762;28;97971;-78
2023/03/27 03:44:30;;;;;;;0.40;0.10;;;;;;;22.03;40.58;101629.94;4990493;28;96250;-78
2023/03/27 03:46:59;;;;;;;0.28;0.20;;;;;;;22.03;40.25;101639.00;4969365;28;96847;-78
2023/03/27 03:49:26;;;;;;;0.30;0.20;;;;;;;22.01;40.43;101629.22;4972750;28;96752;-79
2023/03/27 03:51:53;;;;;;;0.20;0.10;;;;;;;22.02;40.50;101640.00;4988452;28;96658;-78
2023/03/27 03:54:31;;;;;;;0.43;0.20;;;;;;;22.03;40.40;101647.22;4984313;28;98694;-78
2023/03/27 03:56:58;;;;;;;0.30;0.20;;;;;;;22.02;40.19;101652.81;4985044;28;97526;-78
2023/03/27 03:59:25;;;;;;;0.30;0.10;;;;;;;22.02;40.47;101650.94;4978876;28;97407;-78
2023/03/27 04:02:26;;;;;;;0.28;0.10;;;;;;;22.02;40.46;101659.13;4980176;28;97921;-78
2023/03/27 04:04:58;;;;;;;0.40;0.20;;;;;;;22.01;40.40;101659.31;4979625;28;97053;-78
2023/03/27 04:07:34;;;;;;;0.30;0.10;;;;;;;22.02;40.59;101664.59;4959664;28;97390;-78
2023/03/27 04:10:28;;;;;;;0.08;0.00;;;;;;;22.01;40.22;101670.25;4974367;28;97390;-78
2023/03/27 04:12:57;;;;;;;0.30;0.10;;;;;;;22.00;40.47;101674.00;4972012;28;97204;-78
2023/03/27 04:15:29;;;;;;;0.13;0.13;;;;;;;22.00;40.46;101676.72;4963605;28;99156;-78
2023/03/27 04:18:05;;;;;;;0.10;0.10;;;;;;;21.99;40.27;101689.56;4980532;28;96460;-79
2023/03/27 04:20:33;;;;;;;0.30;0.17;;;;;;;22.01;40.63;101683.91;4981285;28;96649;-77
2023/03/27 04:23:02;;;;;;;0.10;0.10;;;;;;;22.00;40.43;101690.41;4983852;28;99476;-78
2023/03/27 04:25:33;;;;;;;0.30;0.10;;;;;;;22.01;40.30;101694.88;4981432;28;97514;-78
2023/03/27 04:28:01;;;;;;;0.15;0.10;;;;;;;22.00;40.33;101693.16;4985226;28;96858;-78
2023/03/27 04:30:38;;;;;;;0.32;0.20;;;;;;;21.99;40.47;101703.22;4981540;28;96867;-78
2023/03/27 04:33:23;;;;;;;0.25;0.10;;;;;;;21.98;40.15;101717.94;4978812;28;97117;-78
2023/03/27 04:35:50;;;;;;;0.10;0.10;;;;;;;21.98;40.29;101717.94;4977646;28;96702;-78
2023/03/27 04:38:50;;;;;;;0.50;0.20;;;;;;;21.98;40.13;101728.00;4981537;28;96746;-78
2023/03/27 04:41:17;;;;;;;0.30;0.15;;;;;;;21.98;40.27;101722.53;4980518;28;96750;-78
2023/03/27 04:43:44;;;;;;;0.13;0.10;;;;;;;21.97;40.03;101724.41;4977383;28;97392;-78
2023/03/27 04:46:11;;;;;;;0.17;0.10;;;;;;;21.98;40.54;101723.41;4986339;28;97452;-78
2023/03/27 04:48:39;;;;;;;0.28;0.17;;;;;;;21.98;40.31;101728.00;4973257;28;96923;-78
2023/03/27 04:51:25;;;;;;;0.43;0.30;;;;;;;21.98;40.31;101733.47;4974243;28;96784;-79
2023/03/27 04:53:55;;;;;;;0.22;0.10;;;;;;;21.98;40.38;101741.69;4976062;28;96754;-78
2023/03/27 04:56:22;;;;;;;0.73;0.28;;;;;;;21.97;40.30;101749.03;4980523;28;97818;-77
2023/03/27 04:58:52;;;;;;;0.20;0.10;;;;;;;21.96;40.24;101755.53;4986174;28;96773;-79
2023/03/27 05:01:20;;;;;;;0.20;0.10;;;;;;;21.98;40.30;101766.31;4957376;28;97997;-78
2023/03/27 05:03:49;;;;;;;0.20;0.10;;;;;;;21.96;40.24;101758.25;4974549;28;97007;-78
2023/03/27 05:06:36;;;;;;;0.15;0.13;;;;;;;21.95;40.12;101770.22;4973222;28;96696;-78
2023/03/27 05:09:10;;;;;;;0.25;0.15;;;;;;;21.96;40.39;101766.47;4966704;28;97846;-79
2023/03/27 05:11:36;;;;;;;0.60;0.20;;;;;;;21.95;40.39;101772.09;4980868;28;96875;-79
2023/03/27 05:14:03;;;;;;;0.28;0.10;;;;;;;21.95;40.16;101764.75;4960854;28;97811;-78
2023/03/27 05:16:32;;;;;;;0.10;0.10;;;;;;;21.94;40.39;101776.72;4977379;28;96985;-78
2023/03/27 05:19:02;;;;;;;0.20;0.10;;;;;;;21.94;40.51;101776.72;4966555;28;96747;-78
2023/03/27 05:21:37;;;;;;;0.20;0.10;;;;;;;21.94;40.36;101784.06;4982360;28;96716;-78
2023/03/27 05:24:08;;;;;;;0.32;0.10;;;;;;;21.94;40.18;101786.78;4979628;28;98870;-78
2023/03/27 05:26:35;;;;;;;0.25;0.20;;;;;;;21.92;40.01;101778.75;4955832;28;97454;-78
2023/03/27 05:29:04;;;;;;;0.25;0.13;;;;;;;21.94;40.13;101786.78;4981062;28;96767;-78
2023/03/27 05:31:35;;;;;;;0.13;0.10;;;;;;;21.92;40.09;101792.41;4958159;28;96901;-78
2023/03/27 05:34:37;;;;;;;0.10;0.10;;;;;;;21.91;40.37;101801.66;4979923;28;96782;-79
2023/03/27 05:37:08;;;;;;;0.20;0.10;;;;;;;21.90;40.23;101797.19;4978586;28;97978;-78
2023/03/27 05:39:55;;;;;;;0.25;0.10;;;;;;;21.88;40.26;101802.81;4963524;28;97013;-78
2023/03/27 05:42:22;;;;;;;0.30;0.20;;;;;;;21.88;40.03;101808.28;4973651;28;97119;-79
2023/03/27 05:44:48;;;;;;;0.15;0.15;;;;;;;21.89;40.45;101806.41;4975709;28;97451;-78
2023/03/27 05:47:15;;;;;;;0.28;0.10;;;;;;;21.89;40.65;101800.94;4959040;28;98914;-78
2023/03/27 05:49:42;;;;;;;0.10;0.10;;;;;;;21.88;40.09;101804.69;4976633;28;96648;-78
2023/03/27 05:52:11;;;;;;;0.20;0.20;;;;;;;21.87;40.21;101803.84;4973762;28;96744;-78
2023/03/27 05:54:37;;;;;;;0.30;0.20;;;;;;;21.87;39.99;101802.97;4987500;28;97059;-78
2023/03/27 05:57:07;;;;;;;0.30;0.20;;;;;;;21.86;40.12;101807.59;4960554;28;98028;-79
2023/03/27 05:59:36;;;;;;;0.10;0.10;;;;;;;21.87;40.30;101812.03;4953945;28;96450;-78
2023/03/27 06:02:17;;;;;;;0.10;0.10;;;;;;;21.87;40.18;101811.19;4974655;28;96945;-78
2023/03/27 06:04:53;;;;;;;0.30;0.20;;;;;;;21.87;40.02;101813.91;4981097;28;97674;-78
2023/03/27 06:07:27;;;;;;;0.20;0.15;;;;;;;21.85;40.35;101816.81;4982849;28;97327;-78
2023/03/27 06:10:00;;;;;;;0.20;0.13;;;;;;;21.85;40.16;101822.28;4977273;28;96858;-77
2023/03/27 06:12:47;;;;;;;0.40;0.20;;;;;;;21.85;40.73;101819.56;4976594;28;96880;-77
2023/03/27 06:15:28;;;;;;;0.20;0.10;;;;;;;21.84;40.46;101833.38;4970260;28;98022;-78
2023/03/27 06:18:13;;;;;;;0.00;0.00;;;;;;;21.84;40.47;101836.97;4976127;28;96675;-78
2023/03/27 06:20:41;;;;;;;0.10;0.10;;;;;;;21.83;40.34;101840.72;4984268;28;96922;-78
2023/03/27 06:23:08;;;;;;;0.30;0.10;;;;;;;21.84;40.23;101858.84;4986524;28;98073;-78
2023/03/27 06:25:37;;;;;;;0.65;0.20;;;;;;;21.84;40.31;101847.91;4979051;28;98126;-78
2023/03/27 06:28:08;;;;;;;0.10;0.10;;;;;;;21.84;40.17;101853.38;4965121;28;97537;-78
2023/03/27 06:30:47;;;;;;;0.40;0.20;;;;;;;21.84;40.07;101852.53;4978357;28;96938;-78
2023/03/27 06:33:26;;;;;;;0.20;0.10;;;;;;;21.84;40.06;101855.25;4966329;28;96987;-78
2023/03/27 06:35:58;;;;;;;0.28;0.25;;;;;;;21.84;40.24;101858.00;4990462;28;96861;-78
2023/03/27 06:38:32;;;;;;;0.30;0.10;;;;;;;21.83;40.26;101861.75;4980179;28;98423;-78
2023/03/27 06:41:00;;;;;;;0.13;0.10;;;;;;;21.84;40.40;101863.47;4967700;28;96840;-78
2023/03/27 06:43:50;;;;;;;0.10;0.10;;;;;;;21.83;40.47;101864.47;4974950;28;96642;-78
2023/03/27 06:46:37;;;;;;;0.00;0.00;;;;;;;21.82;40.35;101860.88;4982260;28;96829;-78
2023/03/27 06:49:17;;;;;;;0.25;0.10;;;;;;;21.83;40.23;101867.22;4977065;28;96671;-78
2023/03/27 06:51:44;;;;;;;0.22;0.10;;;;;;;21.83;40.37;101868.06;4975903;28;96774;-78
2023/03/27 06:54:13;;;;;;;0.30;0.22;;;;;;;21.83;40.22;101868.06;4973703;28;96992;-78
2023/03/27 06:56:45;;;;;;;0.10;0.10;;;;;;;21.83;40.20;101869.94;4961472;28;98479;-78
2023/03/27 06:59:17;;;;;;;0.30;0.20;;;;;;;21.84;40.22;101874.41;4953767;28;97044;-78
2023/03/27 07:01:46;;;;;;;0.85;0.20;;;;;;;21.84;40.13;101883.47;4952966;28;96936;-79
2023/03/27 07:04:33;;;;;;;0.17;0.17;;;;;;;21.85;40.33;101884.31;4966503;28;97676;-78
2023/03/27 07:07:19;;;;;;;0.10;0.10;;;;;;;21.84;40.13;101891.66;4973821;28;96847;-79
2023/03/27 07:09:48;;;;;;;0.03;0.03;;;;;;;21.85;40.27;101892.53;4967865;28;96898;-78
2023/03/27 07:12:19;;;;;;;0.10;0.10;;;;;;;21.86;40.13;101896.97;4951920;28;96748;-78
2023/03/27 07:14:47;;;;;;;0.20;0.10;;;;;;;21.86;40.30;101900.56;4953333;28;96786;-78
2023/03/27 07:17:13;;;;;;;0.10;0.03;;;;;;;21.86;40.23;101894.25;4949774;28;98338;-78
2023/03/27 07:19:48;;;;;;;0.20;0.13;;;;;;;21.86;39.91;101899.72;4956411;28;97976;-78
2023/03/27 07:22:16;;;;;;;0.20;0.10;;;;;;;21.85;40.18;101909.78;4967245;28;97085;-78
2023/03/27 07:24:43;;;;;;;0.20;0.20;;;;;;;21.86;40.31;101914.25;4971099;28;96806;-78
2023/03/27 07:27:10;;;;;;;0.22;0.10;;;;;;;21.85;40.31;101909.78;4974483;28;96971;-78
2023/03/27 07:29:37;;;;;;;0.17;0.10;;;;;;;21.87;40.08;101915.97;4965055;28;97727;-78
2023/03/27 07:32:05;;;;;;;0.10;0.10;;;;;;;21.87;39.95;101924.16;4945006;28;97755;-78
2023/03/27 07:34:46;;;;;;;0.20;0.13;;;;;;;21.87;39.96;101923.31;4958260;28;97433;-79
2023/03/27 07:37:37;;;;;;;0.28;0.28;;;;;;;21.86;40.08;101938.88;4986082;28;97212;-79
2023/03/27 07:40:25;;;;;;;;;;;;;;;21.83;40.28;101938.31;4973704;28;96996;-81
2023/03/27 07:43:40;;;;;;;;;;;;;;;21.79;40.47;101945.13;4966554;28;97704;-79
2023/03/27 07:46:08;;;;;;;0.20;0.10;;;;;;;21.79;40.27;101940.50;4967107;28;97138;-80
2023/03/27 07:48:35;;;;;;;0.50;0.10;;;;;;;21.81;40.60;101938.47;4972894;28;97239;-79
2023/03/27 07:51:02;;;;;;;0.20;0.10;;;;;;;21.84;40.23;101940.03;4969031;28;97153;-79
2023/03/27 07:53:40;;;;;;;0.52;0.25;;;;;;;21.84;40.05;101937.31;4972434;28;96752;-80
2023/03/27 07:56:20;;;;;;;0.10;0.10;;;;;;;21.84;40.12;101940.91;4956157;28;96675;-80
2023/03/27 07:58:52;;;;;;;0.20;0.10;;;;;;;21.85;40.40;101944.50;4956372;28;97751;-79
2023/03/27 08:01:20;;;;;;;0.60;0.10;;;;;;;21.86;40.11;101943.47;4952193;28;98296;-79
2023/03/27 08:03:50;;;;;;;0.15;0.10;;;;;;;21.87;40.03;101943.31;4962911;28;96694;-80
2023/03/27 08:06:19;;;;;;;0.20;0.10;;;;;;;21.87;40.10;101939.72;4964422;28;97141;-80
2023/03/27 08:08:46;;;;;;;0.10;0.10;;;;;;;21.88;40.14;101941.44;4957071;28;96622;-81
2023/03/27 08:11:13;;;;;;;0.35;0.20;;;;;;;21.88;39.96;101942.31;4968386;28;97409;-80
2023/03/27 08:13:55;;;;;;;0.00;0.00;;;;;;;21.89;39.94;101945.91;4952808;28;96743;-80
2023/03/27 08:16:26;;;;;;;0.03;0.03;;;;;;;21.89;39.77;101949.50;4965785;28;97057;-80
2023/03/27 08:18:56;;;;;;;0.10;0.10;;;;;;;21.89;40.02;101951.38;4972872;28;98101;-79
2023/03/27 08:21:24;;;;;;;0.40;0.17;;;;;;;21.87;40.10;101959.72;4973401;28;97039;-80
2023/03/27 08:23:50;;;;;;;0.65;0.17;;;;;;;21.90;39.96;101958.56;4948527;28;97436;-80
2023/03/27 08:26:17;;;;;;;0.20;0.20;;;;;;;21.89;39.94;101965.91;4972375;28;96897;-80
2023/03/27 08:28:56;;;;;;;0.38;0.17;;;;;;;21.87;40.09;101957.00;4964722;28;96924;-79
2023/03/27 08:31:28;;;;;;;0.15;0.10;;;;;;;21.89;39.88;101974.09;4958227;28;99547;-80
2023/03/27 08:33:58;;;;;;;0.47;0.10;;;;;;;21.89;39.88;101971.38;4971689;28;96959;-80
2023/03/27 08:36:30;;;;;;;0.03;0.03;;;;;;;21.91;39.72;101979.41;4956333;28;98472;-79
2023/03/27 08:39:01;;;;;;;0.10;0.10;;;;;;;21.90;39.79;101972.22;4954549;28;98764;-80
2023/03/27 08:41:41;;;;;;;0.10;0.10;;;;;;;21.90;40.01;101969.50;4958323;28;96812;-80
2023/03/27 08:44:17;;;;;;;0.10;0.10;;;;;;;21.89;39.79;101974.09;4949461;28;96755;-80
2023/03/27 08:46:54;;;;;;;0.10;0.10;;;;;;;21.91;40.02;101973.09;4958405;28;96943;-82
2023/03/27 08:49:27;;;;;;;0.55;0.20;;;;;;;21.91;39.73;101973.09;4980326;28;96763;-81
2023/03/27 08:52:30;;;;;;;0.25;0.10;;;;;;;21.89;39.61;101973.25;4954595;28;96896;-82
2023/03/27 08:55:09;;;;;;;0.40;0.20;;;;;;;21.90;39.71;101977.69;4943297;28;96654;-82
2023/03/27 08:57:42;;;;;;;0.17;0.10;;;;;;;21.88;39.79;101986.06;4956342;28;96534;-82
2023/03/27 09:00:26;;;;;;;0.30;0.17;;;;;;;21.90;40.03;101991.38;4959622;28;98138;-82
2023/03/27 09:03:04;;;;;;;0.20;0.10;;;;;;;21.89;39.67;101997.88;4958402;28;97176;-82
2023/03/27 09:06:08;;;;;;;0.22;0.20;;;;;;;21.88;39.83;101998.88;4971543;28;97204;-82
2023/03/27 09:08:37;;;;;;;0.17;0.10;;;;;;;21.88;40.09;102007.09;4935341;28;96859;-82
2023/03/27 09:11:20;;;;;;;0.10;0.10;;;;;;;21.88;39.72;102013.41;4966890;28;97902;-82
2023/03/27 09:13:54;;;;;;;0.55;0.10;;;;;;;21.87;39.79;102003.50;4962489;28;99798;-82
2023/03/27 09:16:31;;;;;;;0.10;0.10;;;;;;;21.89;39.96;101997.88;4971348;28;96720;-82
2023/03/27 09:19:07;;;;;;;0.43;0.20;;;;;;;21.89;39.64;102014.28;4963739;28;96670;-82
2023/03/27 09:21:43;;;;;;;0.20;0.10;;;;;;;21.88;39.97;102018.88;4972215;28;96964;-82
2023/03/27 09:24:32;;;;;;;0.10;0.10;;;;;;;21.89;39.69;102014.28;4948843;28;97178;-82
2023/03/27 09:27:33;;;;;;;0.10;0.10;;;;;;;21.88;40.01;102026.22;4965051;28;97694;-80
2023/03/27 09:30:20;;;;;;;0.22;0.20;;;;;;;21.87;39.60;102016.31;4982602;28;96726;-79
2023/03/27 09:33:00;;;;;;;0.10;0.10;;;;;;;21.87;39.85;102017.16;4957831;28;98216;-79
2023/03/27 09:35:28;;;;;;;0.25;0.20;;;;;;;21.87;39.96;102014.44;4965132;28;100352;-79
2023/03/27 09:38:02;;;;;;;0.20;0.15;;;;;;;21.88;39.68;102018.88;4943205;28;97173;-79
2023/03/27 09:40:44;;;;;;;0.20;0.10;;;;;;;21.89;39.75;102017.00;4974119;28;96657;-80
2023/03/27 09:43:19;;;;;;;0.20;0.10;;;;;;;21.89;39.95;102011.53;4968560;28;98090;-81
2023/03/27 09:45:52;;;;;;;0.25;0.20;;;;;;;21.89;39.67;102017.00;4966231;28;99328;-79
2023/03/27 09:48:46;;;;;;;0.20;0.10;;;;;;;21.90;39.76;102026.94;4956678;28;97454;-78
2023/03/27 09:51:55;;;;;;;0.20;0.20;;;;;;;21.88;39.82;102035.28;4969105;28;97305;-77
2023/03/27 09:54:51;;;;;;;0.30;0.20;;;;;;;21.87;39.83;102035.44;4910050;28;98189;-81
2023/03/27 09:57:34;;;;;;;0.93;0.30;;;;;;;21.86;39.90;102034.59;4916493;28;96673;-82
